Time;durP1;ratioP1;P1;durP2;ratioP2;P2;SDS_P1;SDS_P2;PMS_P1;PMS_P2;Temp;Humidity;BMP_temperature;BMP_pressure;BME280_temperature;BME280_humidity;BME280_pressure;Samples;Min_cycle;Max_cycle;Signal;HPM_P1;HPM_P2
2021/01/31 00:00:46;;;;;;;29.28;17.62;;;-1.90;99.90;;;0.22;100.00;100461.06;1703700;74;24945;-77
2021/01/31 00:03:05;;;;;;;31.15;18.35;;;-1.90;99.90;;;0.18;100.00;100457.87;1705744;75;24552;-76
2021/01/31 00:05:24;;;;;;;29.13;16.59;;;-1.90;99.90;;;0.20;100.00;100463.95;1705936;74;24422;-75
2021/01/31 00:07:41;;;;;;;29.24;17.59;;;-2.00;99.90;;;0.17;100.00;100457.80;1703080;75;24943;-75
2021/01/31 00:09:57;;;;;;;32.68;19.06;;;-2.00;99.90;;;0.10;100.00;100461.77;1706645;74;24445;-75
2021/01/31 00:12:14;;;;;;;31.47;19.32;;;-2.00;99.90;;;0.17;100.00;100466.77;1709601;74;24983;-75
2021/01/31 00:14:30;;;;;;;30.85;18.50;;;-1.90;99.90;;;0.25;100.00;100471.44;1705897;75;24433;-76
2021/01/31 00:16:47;;;;;;;29.74;18.61;;;-1.90;99.90;;;0.22;100.00;100473.86;1706017;75;24493;-74
2021/01/31 00:19:03;;;;;;;31.89;18.19;;;-1.90;99.90;;;0.22;100.00;100477.70;1703254;74;24519;-75
2021/01/31 00:21:19;;;;;;;30.90;17.48;;;-2.00;99.90;;;0.10;100.00;100473.67;1696270;75;24505;-75
2021/01/31 00:23:35;;;;;;;30.48;18.16;;;-2.00;99.90;;;-0.10;100.00;100474.95;1702070;75;24509;-75
2021/01/31 00:25:54;;;;;;;29.51;18.46;;;-2.10;99.90;;;-0.15;100.00;100478.97;1703293;75;24433;-76
2021/01/31 00:28:11;;;;;;;27.93;16.48;;;-2.10;99.90;;;-0.17;100.00;100480.56;1709113;75;24561;-76
2021/01/31 00:30:31;;;;;;;29.84;17.53;;;-2.10;99.90;;;-0.11;100.00;100479.95;1709339;75;24426;-75
2021/01/31 00:32:49;;;;;;;29.21;17.49;;;-2.10;99.90;;;-0.06;100.00;100482.33;1707807;75;24614;-75
2021/01/31 00:35:07;;;;;;;31.14;18.15;;;-2.10;99.90;;;-0.15;100.00;100481.53;1708807;74;24906;-75
2021/01/31 00:37:25;;;;;;;28.31;16.64;;;-2.10;99.90;;;-0.07;100.00;100481.88;1706195;74;24452;-75
2021/01/31 00:39:41;;;;;;;28.23;16.47;;;-2.20;99.90;;;-0.13;100.00;100482.45;1705605;74;24446;-76
2021/01/31 00:41:58;;;;;;;30.34;18.30;;;-2.10;99.90;;;-0.19;100.00;100478.76;1698878;75;25184;-75
2021/01/31 00:44:15;;;;;;;29.68;17.21;;;-2.20;99.90;;;-0.13;100.00;100475.20;1702738;75;24497;-76
2021/01/31 00:46:37;;;;;;;30.75;18.88;;;-2.10;99.90;;;-0.12;100.00;100480.39;1704704;74;24976;-76
2021/01/31 00:48:53;;;;;;;26.44;15.55;;;-2.20;99.90;;;-0.11;100.00;100487.63;1705665;75;24847;-76
2021/01/31 00:51:09;;;;;;;28.76;15.84;;;-2.20;99.90;;;-0.21;100.00;100490.59;1708833;74;24468;-77
2021/01/31 00:53:26;;;;;;;26.30;16.25;;;-2.20;99.90;;;-0.30;100.00;100489.73;1705695;75;24986;-76
2021/01/31 00:55:44;;;;;;;29.64;17.83;;;-2.20;99.90;;;-0.27;100.00;100497.98;1701897;74;24700;-76
2021/01/31 00:58:05;;;;;;;28.81;17.08;;;-2.20;99.90;;;-0.18;100.00;100490.34;1707343;74;24460;-76
2021/01/31 01:00:27;;;;;;;30.38;18.57;;;-2.20;99.90;;;-0.19;100.00;100496.23;1667623;76;24877;-77
2021/01/31 01:02:43;;;;;;;30.65;17.44;;;-2.20;99.90;;;-0.19;100.00;100495.39;1697864;75;24895;-77
2021/01/31 01:05:00;;;;;;;29.42;18.18;;;-2.30;99.90;;;-0.28;100.00;100489.81;1706043;75;24465;-77
2021/01/31 01:07:17;;;;;;;30.29;17.73;;;-2.30;99.90;;;-0.31;100.00;100498.23;1707029;75;24523;-76
2021/01/31 01:09:33;;;;;;;30.16;17.17;;;-2.40;99.90;;;-0.36;100.00;100500.97;1699997;75;24502;-76
2021/01/31 01:11:50;;;;;;;31.68;18.55;;;-2.30;99.90;;;-0.30;100.00;100496.56;1707509;74;24418;-77
2021/01/31 01:14:08;;;;;;;31.27;18.65;;;-2.40;99.90;;;-0.29;100.00;100490.63;1704561;75;24555;-76
2021/01/31 01:16:25;;;;;;;32.57;18.40;;;-2.40;99.90;;;-0.26;100.00;100492.94;1707482;75;24452;-76
2021/01/31 01:18:41;;;;;;;32.22;18.00;;;-2.40;99.90;;;-0.34;100.00;100497.20;1699032;75;24504;-76
2021/01/31 01:20:58;;;;;;;32.56;18.18;;;-2.50;99.90;;;-0.43;100.00;100500.61;1708507;74;24906;-75
2021/01/31 01:23:15;;;;;;;34.56;19.48;;;-2.50;99.90;;;-0.41;100.00;100506.68;1700139;75;24487;-76
2021/01/31 01:25:33;;;;;;;32.79;17.82;;;-2.50;99.90;;;-0.26;100.00;100513.80;1700202;75;24990;-76
2021/01/31 01:27:49;;;;;;;36.81;20.18;;;-2.50;99.90;;;-0.36;100.00;100507.75;1708714;75;24495;-77
2021/01/31 01:30:11;;;;;;;27.78;16.20;;;-2.50;99.90;;;-0.27;100.00;100507.79;1709883;75;24425;-76
2021/01/31 01:32:28;;;;;;;33.90;19.51;;;-2.50;99.90;;;-0.42;100.00;100506.19;1698385;74;24871;-77
2021/01/31 01:34:44;;;;;;;29.69;17.74;;;-2.50;99.90;;;-0.55;100.00;100505.11;1693190;75;24551;-76
2021/01/31 01:37:00;;;;;;;28.40;16.12;;;-2.50;99.90;;;-0.53;100.00;100508.63;1702225;74;24868;-76
2021/01/31 01:39:16;;;;;;;29.98;17.25;;;-2.50;99.90;;;-0.59;100.00;100513.45;1709437;74;24887;-77
2021/01/31 01:41:41;;;;;;;31.56;17.71;;;-2.50;99.90;;;-0.64;100.00;100523.84;1702396;75;24939;-76
2021/01/31 01:43:58;;;;;;;28.38;17.35;;;-2.60;99.90;;;-0.61;100.00;100517.59;1700817;74;24496;-76
2021/01/31 01:49:22;;;;;;;29.50;17.05;;;-2.60;99.90;;;-0.39;100.00;100522.95;1748762;72;25296;-78
2021/01/31 01:51:43;;;;;;;32.48;18.99;;;-2.60;99.90;;;-0.63;100.00;100522.64;1702147;75;24919;-77
2021/01/31 01:54:03;;;;;;;33.94;19.40;;;-2.70;99.90;;;-0.62;100.00;100522.25;1704609;74;24451;-78
2021/01/31 01:56:27;;;;;;;33.19;18.43;;;-2.70;99.90;;;-0.52;100.00;100518.07;1690452;73;24473;-76
2021/01/31 01:58:46;;;;;;;33.58;18.10;;;-2.70;99.90;;;-0.59;100.00;100514.33;1697433;75;24374;-76
2021/01/31 02:01:07;;;;;;;30.48;17.04;;;-2.70;99.90;;;-0.63;100.00;100506.41;1702994;75;24902;-77
2021/01/31 02:03:29;;;;;;;31.88;19.30;;;-2.70;99.90;;;-0.70;100.00;100498.88;1698911;75;24544;-76
2021/01/31 02:05:56;;;;;;;33.90;18.63;;;-2.70;99.90;;;-0.50;100.00;100503.27;1690363;74;24553;-77
2021/01/31 02:08:12;;;;;;;30.61;18.18;;;-2.70;99.90;;;-0.62;100.00;100497.57;1706740;75;24461;-76
2021/01/31 02:10:29;;;;;;;31.48;19.11;;;-2.70;99.90;;;-0.73;100.00;100498.73;1701734;75;24442;-76
2021/01/31 02:12:46;;;;;;;32.51;16.95;;;-2.70;99.90;;;-0.77;100.00;100499.75;1703141;75;24466;-78
2021/01/31 02:15:07;;;;;;;29.80;17.62;;;-2.70;99.90;;;-0.69;100.00;100502.28;1694621;75;24449;-77
2021/01/31 02:17:29;;;;;;;31.36;17.43;;;-2.70;99.90;;;-0.76;100.00;100503.66;1701766;75;24498;-76
2021/01/31 02:20:24;;;;;;;34.62;18.97;;;-2.80;99.90;;;-0.74;100.00;100509.73;1708047;73;24895;-77
2021/01/31 02:23:16;;;;;;;21.39;12.48;;;-2.80;99.90;;;-0.77;100.00;100507.41;1679495;75;24461;-76
2021/01/31 02:26:02;;;;;;;32.04;18.36;;;-2.80;99.90;;;-0.89;100.00;100505.16;1696342;74;24469;-76
2021/01/31 02:28:52;;;;;;;31.98;17.60;;;-2.80;99.90;;;-0.67;100.00;100496.85;1710113;75;24513;-76
2021/01/31 02:31:49;;;;;;;30.03;16.42;;;-2.80;99.90;;;-0.69;100.00;100493.34;1703815;75;24895;-76
2021/01/31 02:34:15;;;;;;;33.44;18.66;;;-2.80;99.90;;;-0.79;100.00;100495.84;1711086;74;24499;-76
2021/01/31 02:36:41;;;;;;;32.53;18.56;;;-2.80;99.90;;;-0.65;100.00;100491.00;1693621;75;24928;-76
2021/01/31 02:39:10;;;;;;;32.09;19.02;;;-2.80;99.90;;;-0.83;100.00;100495.23;1698549;75;24565;-76
2021/01/31 02:41:33;;;;;;;30.96;18.10;;;-2.90;99.90;;;-0.76;100.00;100488.74;1707890;75;24427;-76
2021/01/31 02:43:54;;;;;;;31.06;18.99;;;-2.90;99.90;;;-0.83;100.00;100493.06;1693681;75;24480;-76
2021/01/31 02:46:17;;;;;;;33.52;19.01;;;-2.90;99.90;;;-0.87;100.00;100492.45;1700284;75;24441;-76
2021/01/31 02:48:42;;;;;;;34.66;19.27;;;-2.90;99.90;;;-0.77;100.00;100489.13;1710263;73;24471;-76
2021/01/31 02:51:04;;;;;;;35.69;19.19;;;-2.90;99.90;;;-0.77;100.00;100475.47;1700317;74;24543;-76
2021/01/31 02:53:25;;;;;;;31.44;17.63;;;-2.90;99.90;;;-0.76;100.00;100476.81;1705692;74;24514;-77
2021/01/31 02:55:47;;;;;;;34.96;19.14;;;-2.90;99.90;;;-0.96;100.00;100482.64;1704153;73;24482;-77
2021/01/31 02:58:08;;;;;;;33.97;19.80;;;-2.90;99.90;;;-0.90;100.00;100484.64;1701991;74;24852;-77
2021/01/31 03:00:30;;;;;;;33.22;18.72;;;-2.90;99.90;;;-0.86;100.00;100486.14;1717155;73;24413;-77
2021/01/31 03:02:54;;;;;;;31.25;18.76;;;-2.90;99.90;;;-0.82;100.00;100480.36;1706564;74;24931;-76
2021/01/31 03:05:15;;;;;;;34.37;21.23;;;-2.90;99.90;;;-0.92;100.00;100473.45;1701162;74;24480;-77
2021/01/31 03:07:37;;;;;;;37.66;20.09;;;-2.90;99.90;;;-0.85;100.00;100467.44;1702705;74;24994;-76
2021/01/31 03:10:00;;;;;;;35.07;19.87;;;-2.90;99.90;;;-0.82;100.00;100475.67;1704240;74;24430;-76
2021/01/31 03:12:22;;;;;;;36.67;20.53;;;-2.90;99.90;;;-0.85;100.00;100469.10;1698574;74;24494;-77
2021/01/31 03:14:43;;;;;;;36.30;19.78;;;-3.00;99.90;;;-0.85;100.00;100471.27;1710904;74;24636;-78
2021/01/31 03:19:41;;;;;;;36.69;21.08;;;-2.90;99.90;;;-0.80;100.00;100468.55;1741994;72;25235;-76
2021/01/31 03:22:01;;;;;;;34.49;18.16;;;-3.00;99.90;;;-0.90;100.00;100487.19;1697018;75;24507;-77
2021/01/31 03:24:23;;;;;;;35.29;19.70;;;-3.00;99.90;;;-0.97;100.00;100482.56;1699632;75;24456;-77
2021/01/31 03:26:45;;;;;;;34.95;19.96;;;-3.00;99.90;;;-1.03;100.00;100484.81;1701723;75;25075;-77
2021/01/31 03:29:04;;;;;;;38.80;20.55;;;-3.00;99.90;;;-1.00;100.00;100483.30;1690445;75;24659;-76
2021/01/31 03:31:24;;;;;;;34.74;19.95;;;-3.00;99.90;;;-1.03;100.00;100484.81;1700785;75;24455;-77
2021/01/31 03:33:46;;;;;;;35.69;19.88;;;-3.00;99.90;;;-1.06;100.00;100485.52;1695718;75;24912;-77
2021/01/31 03:36:05;;;;;;;39.41;20.76;;;-3.00;99.90;;;-1.01;100.00;100484.50;1688298;75;25121;-78
2021/01/31 03:38:26;;;;;;;34.30;19.57;;;-3.10;99.90;;;-0.98;100.00;100482.09;1701498;75;24997;-77
2021/01/31 03:40:47;;;;;;;36.00;20.67;;;-3.10;99.90;;;-1.06;100.00;100485.52;1699291;73;24495;-78
2021/01/31 03:43:05;;;;;;;33.06;18.98;;;-3.10;99.90;;;-1.11;100.00;100479.72;1699093;75;24439;-77
2021/01/31 03:45:26;;;;;;;36.63;20.18;;;-3.10;99.90;;;-1.16;100.00;100474.77;1690626;75;24433;-77
2021/01/31 03:47:48;;;;;;;37.60;20.83;;;-3.10;99.90;;;-1.07;100.00;100479.95;1704163;75;24451;-77
2021/01/31 03:50:09;;;;;;;34.41;20.69;;;-3.10;99.90;;;-1.12;100.00;100477.98;1703046;75;24531;-77
2021/01/31 03:52:27;;;;;;;37.90;20.38;;;-3.10;99.90;;;-1.15;100.00;100472.69;1701391;75;24436;-77
2021/01/31 03:54:44;;;;;;;32.97;17.55;;;-3.20;99.90;;;-1.19;100.00;100474.23;1695237;75;24450;-77
2021/01/31 03:57:06;;;;;;;34.71;19.77;;;-3.20;99.90;;;-1.22;100.00;100483.41;1697143;75;24496;-78
2021/01/31 03:59:27;;;;;;;35.38;18.14;;;-3.20;99.90;;;-1.17;100.00;100487.08;1707152;75;24503;-76
2021/01/31 04:01:46;;;;;;;33.81;18.29;;;-3.20;99.90;;;-1.32;100.00;100490.11;1701896;75;24956;-79
2021/01/31 04:06:41;;;;;;;31.99;18.32;;;-3.20;99.90;;;-1.13;100.00;100492.80;1742142;72;25764;-77
2021/01/31 04:08:59;;;;;;;36.10;20.34;;;-3.30;99.90;;;-1.36;100.00;100492.05;1718096;73;24450;-77
2021/01/31 04:11:32;;;;;;;34.18;19.50;;;-3.30;99.90;;;-1.39;100.00;100497.00;1718041;73;24888;-78
2021/01/31 04:13:51;;;;;;;33.02;18.53;;;-3.30;99.90;;;-1.31;100.00;100499.13;1724933;73;24515;-78
2021/01/31 04:16:11;;;;;;;39.61;20.67;;;-3.30;99.90;;;-1.33;100.00;100503.69;1718947;73;24430;-78
2021/01/31 04:18:28;;;;;;;36.08;20.43;;;-3.30;99.90;;;-1.24;100.00;100502.48;1726049;73;24434;-77
2021/01/31 04:20:44;;;;;;;38.89;20.19;;;-3.30;99.90;;;-1.24;100.00;100506.70;1730793;73;24919;-76
2021/01/31 04:23:00;;;;;;;39.63;21.66;;;-3.30;99.90;;;-1.23;100.00;100499.55;1717039;73;24568;-76
2021/01/31 04:25:17;;;;;;;36.43;19.75;;;-3.30;99.90;;;-1.31;100.00;100495.72;1717261;73;24508;-77
2021/01/31 04:27:33;;;;;;;40.49;22.73;;;-3.30;99.90;;;-1.30;100.00;100496.18;1725379;73;24441;-77
2021/01/31 04:29:49;;;;;;;37.79;21.13;;;-3.30;99.90;;;-1.31;100.00;100492.73;1726588;73;24434;-77
2021/01/31 04:32:07;;;;;;;38.90;19.99;;;-3.40;99.90;;;-1.33;100.00;100493.47;1734605;73;24448;-77
2021/01/31 04:34:23;;;;;;;37.62;19.92;;;-3.40;99.90;;;-1.26;100.00;100498.08;1719918;73;24465;-78
2021/01/31 04:36:40;;;;;;;39.72;20.88;;;-3.40;99.90;;;-1.40;100.00;100499.05;1717047;74;24496;-77
2021/01/31 04:38:57;;;;;;;37.07;20.26;;;-3.40;99.90;;;-1.39;100.00;100513.59;1720041;73;24859;-78
2021/01/31 04:41:17;;;;;;;26.49;14.67;;;-3.40;99.90;;;-1.42;100.00;100510.45;1718056;73;24971;-76
2021/01/31 04:43:34;;;;;;;29.29;15.02;;;-3.50;99.90;;;-1.64;100.00;100500.81;1736307;73;24877;-77
2021/01/31 04:45:52;;;;;;;37.56;19.97;;;-3.50;99.90;;;-1.61;100.00;100504.80;1729624;73;24479;-78
2021/01/31 04:48:20;;;;;;;39.02;21.14;;;-3.50;99.90;;;-1.45;100.00;100510.30;1725880;73;24462;-77
2021/01/31 04:50:42;;;;;;;38.73;21.08;;;-3.50;99.90;;;-1.41;100.00;100509.69;1743121;73;24443;-78
2021/01/31 04:53:16;;;;;;;40.12;21.23;;;-3.50;99.90;;;-1.38;100.00;100502.56;1717221;73;24577;-77
2021/01/31 04:56:09;;;;;;;37.78;19.75;;;-3.50;99.90;;;-1.42;100.00;100505.78;1716905;73;24489;-77
2021/01/31 04:58:32;;;;;;;41.42;20.90;;;-3.50;99.90;;;-1.35;100.00;100515.10;1717234;73;24394;-79
2021/01/31 05:00:54;;;;;;;41.09;20.82;;;-3.50;99.90;;;-1.34;100.00;100508.33;1739378;73;24447;-76
2021/01/31 05:03:12;;;;;;;39.60;21.97;;;-3.60;99.90;;;-1.46;100.00;100513.67;1719385;73;24464;-77
2021/01/31 05:05:36;;;;;;;43.28;22.21;;;-3.60;99.90;;;-1.45;100.00;100509.45;1726658;73;24876;-77
2021/01/31 05:07:58;;;;;;;40.93;22.90;;;-3.60;99.90;;;-1.40;100.00;100509.27;1716504;74;24919;-77
2021/01/31 05:10:16;;;;;;;39.65;20.30;;;-3.60;99.90;;;-1.49;100.00;100511.34;1707090;74;24468;-78
2021/01/31 05:12:38;;;;;;;39.49;19.95;;;-3.70;99.90;;;-1.49;100.00;100511.34;1705718;74;24994;-77
2021/01/31 05:15:08;;;;;;;39.12;21.30;;;-3.60;99.90;;;-1.60;100.00;100506.96;1706133;74;24418;-78
2021/01/31 05:17:26;;;;;;;39.71;21.93;;;-3.70;99.90;;;-1.48;100.00;100502.48;1706052;75;24461;-77
2021/01/31 05:19:42;;;;;;;40.87;21.29;;;-3.70;99.90;;;-1.50;100.00;100509.60;1705956;75;24499;-77
2021/01/31 05:22:00;;;;;;;47.72;22.99;;;-3.70;99.90;;;-1.44;100.00;100515.02;1710977;74;24448;-77
2021/01/31 05:24:21;;;;;;;45.97;22.91;;;-3.70;99.90;;;-1.43;100.00;100512.94;1705412;74;24570;-77
2021/01/31 05:26:42;;;;;;;45.39;22.95;;;-3.70;99.90;;;-1.46;100.00;100511.50;1706171;74;24509;-78
2021/01/31 05:29:03;;;;;;;47.03;22.79;;;-3.70;99.90;;;-1.43;100.00;100507.83;1707097;74;24461;-79
2021/01/31 05:31:22;;;;;;;45.87;23.11;;;-3.70;99.90;;;-1.49;100.00;100508.80;1707645;74;24447;-77
2021/01/31 05:33:55;;;;;;;42.12;21.64;;;-3.80;99.90;;;-1.48;100.00;100506.31;1713787;74;24496;-77
2021/01/31 05:36:20;;;;;;;43.19;21.56;;;-3.80;99.90;;;-1.61;100.00;100507.73;1716805;74;24879;-77
2021/01/31 05:38:39;;;;;;;43.02;22.61;;;-3.80;99.90;;;-1.56;100.00;100514.86;1711752;74;24943;-78
2021/01/31 05:40:56;;;;;;;41.36;20.21;;;-3.80;99.90;;;-1.50;100.00;100511.73;1705595;75;24475;-77
2021/01/31 05:43:18;;;;;;;50.36;23.35;;;-3.80;99.90;;;-1.72;100.00;100508.45;1709905;74;24449;-77
2021/01/31 05:45:44;;;;;;;44.67;23.20;;;-3.80;99.90;;;-1.63;100.00;100513.19;1705854;74;24491;-77
2021/01/31 05:48:02;;;;;;;46.49;22.13;;;-3.80;99.90;;;-1.63;100.00;100514.05;1706510;74;24395;-78
2021/01/31 05:50:29;;;;;;;44.18;22.21;;;-3.80;99.90;;;-1.67;100.00;100511.25;1715758;74;24433;-79
2021/01/31 05:52:45;;;;;;;42.96;22.00;;;-3.80;99.90;;;-1.67;100.00;100514.69;1712892;74;24514;-77
2021/01/31 05:55:05;;;;;;;44.25;22.06;;;-3.80;99.90;;;-1.60;100.00;100519.73;1717927;74;24432;-78
2021/01/31 05:57:29;;;;;;;34.99;20.60;;;-3.80;99.90;;;-1.64;100.00;100522.51;1707803;74;24477;-78
2021/01/31 06:00:05;;;;;;;41.72;20.43;;;-3.80;99.90;;;-1.75;100.00;100526.16;1690535;74;24987;-77
2021/01/31 06:02:29;;;;;;;38.30;20.26;;;-3.80;99.90;;;-1.68;100.00;100529.92;1706139;74;24444;-78
2021/01/31 06:04:47;;;;;;;37.67;20.43;;;-3.80;99.90;;;-1.74;100.00;100527.05;1714285;74;24487;-78
2021/01/31 06:07:13;;;;;;;41.25;21.24;;;-3.80;99.90;;;-1.66;100.00;100518.98;1703157;73;24446;-78
2021/01/31 06:09:41;;;;;;;39.61;21.38;;;-3.80;99.90;;;-1.62;100.00;100517.48;1732675;73;24514;-78
2021/01/31 06:12:17;;;;;;;38.57;19.76;;;-3.80;99.90;;;-1.69;100.00;100515.38;1725196;74;25071;-79
2021/01/31 06:14:37;;;;;;;35.45;19.65;;;-3.80;99.90;;;-1.68;100.00;100514.22;1725660;73;24888;-79
2021/01/31 06:17:04;;;;;;;37.58;20.72;;;-3.80;99.90;;;-1.70;100.00;100511.98;1725068;73;24901;-77
2021/01/31 06:19:26;;;;;;;33.28;17.89;;;-3.80;99.90;;;-1.66;100.00;100504.95;1725300;73;24491;-78
2021/01/31 06:21:47;;;;;;;36.68;20.54;;;-3.90;99.90;;;-1.78;100.00;100505.97;1733892;73;24500;-78
2021/01/31 06:24:11;;;;;;;36.89;18.68;;;-3.90;99.90;;;-1.83;100.00;100505.73;1725246;74;24527;-77
2021/01/31 06:26:36;;;;;;;36.12;18.63;;;-3.90;99.90;;;-1.83;100.00;100509.56;1725289;73;24468;-78
2021/01/31 06:28:56;;;;;;;33.73;19.54;;;-3.90;99.90;;;-1.89;100.00;100518.17;1735725;73;24944;-77
2021/01/31 06:31:30;;;;;;;35.01;19.07;;;-3.90;99.90;;;-1.92;100.00;100526.05;1725113;73;24507;-79
2021/01/31 06:33:48;;;;;;;35.20;19.24;;;-4.00;99.90;;;-1.87;100.00;100534.45;1725216;73;24439;-78
2021/01/31 06:36:18;;;;;;;33.89;18.35;;;-4.00;99.90;;;-1.84;100.00;100529.50;1725281;73;24439;-77
2021/01/31 06:38:40;;;;;;;34.89;19.35;;;-4.00;99.90;;;-1.96;100.00;100531.37;1725356;73;24564;-77
2021/01/31 06:41:05;;;;;;;37.31;19.47;;;-4.00;99.90;;;-1.97;100.00;100533.45;1724544;73;24550;-78
2021/01/31 06:43:34;;;;;;;36.71;20.10;;;-4.00;99.90;;;-1.96;100.00;100526.27;1731818;73;24856;-77
2021/01/31 06:45:58;;;;;;;36.57;20.59;;;-4.00;99.90;;;-1.93;100.00;100519.20;1725254;73;24874;-77
2021/01/31 06:48:45;;;;;;;36.81;20.00;;;-4.00;99.90;;;-1.93;100.00;100511.55;1725353;73;24494;-78
2021/01/31 06:51:21;;;;;;;37.41;19.58;;;-4.00;99.90;;;-1.87;100.00;100511.87;1725205;73;24439;-78
2021/01/31 06:53:57;;;;;;;39.72;20.08;;;-4.10;99.90;;;-1.88;100.00;100513.53;1724798;74;24492;-77
2021/01/31 06:56:42;;;;;;;38.84;20.47;;;-4.10;99.90;;;-1.90;100.00;100507.88;1725076;73;24896;-78
2021/01/31 06:59:20;;;;;;;36.09;19.57;;;-4.10;99.90;;;-1.94;100.00;100512.32;1725548;73;24942;-77
2021/01/31 07:02:09;;;;;;;37.89;20.11;;;-4.10;99.90;;;-2.01;100.00;100521.73;1723443;73;24902;-78
2021/01/31 07:05:01;;;;;;;37.50;20.19;;;-4.10;99.90;;;-2.00;100.00;100516.71;1725023;73;24943;-78
2021/01/31 07:08:15;;;;;;;35.06;18.66;;;-4.10;99.90;;;-1.98;100.00;100513.86;1727492;73;24491;-79
2021/01/31 07:11:09;;;;;;;40.19;18.91;;;-4.20;99.90;;;-1.99;100.00;100513.77;1698699;74;24593;-78
2021/01/31 07:14:05;;;;;;;34.88;19.22;;;-4.20;99.90;;;-1.92;100.00;100514.56;1623731;75;24591;-77
2021/01/31 07:16:49;;;;;;;41.15;20.92;;;-4.20;99.90;;;-1.96;100.00;100511.38;1692328;74;24510;-78
2021/01/31 07:19:12;;;;;;;40.26;20.61;;;-4.20;99.90;;;-1.92;100.00;100504.36;1711043;74;24499;-79
2021/01/31 07:21:40;;;;;;;38.17;20.00;;;-4.10;99.90;;;-2.04;100.00;100510.09;1703650;75;24520;-77
2021/01/31 07:24:01;;;;;;;33.69;17.83;;;-4.10;99.90;;;-2.01;100.00;100502.18;1711232;74;24524;-78
2021/01/31 07:26:34;;;;;;;38.84;20.92;;;-4.10;99.90;;;-2.00;100.00;100503.95;1707289;74;24914;-77
2021/01/31 07:28:56;;;;;;;38.89;19.64;;;-4.10;99.90;;;-1.96;100.00;100505.86;1703157;74;24489;-79
2021/01/31 07:31:20;;;;;;;37.66;20.05;;;-4.10;99.90;;;-2.04;100.00;100510.95;1703776;74;24778;-78
2021/01/31 07:33:43;;;;;;;38.02;20.30;;;-4.10;99.90;;;-1.96;100.00;100509.69;1707354;74;24513;-79
2021/01/31 07:36:06;;;;;;;25.31;12.69;;;-4.00;99.90;;;-1.95;100.00;100511.85;1703413;74;24904;-78
2021/01/31 07:38:27;;;;;;;37.39;20.30;;;-4.00;99.90;;;-2.02;100.00;100517.02;1707704;75;24452;-77
2021/01/31 07:40:47;;;;;;;36.17;20.65;;;-4.00;99.90;;;-1.96;100.00;100516.48;1711912;74;24440;-77
2021/01/31 07:43:09;;;;;;;36.54;20.43;;;-3.90;99.90;;;-1.90;100.00;100523.19;1710186;74;24442;-77
2021/01/31 07:45:32;;;;;;;38.88;20.72;;;-3.90;99.90;;;-1.82;100.00;100524.48;1711668;74;24517;-78
2021/01/31 07:47:53;;;;;;;37.94;20.62;;;-3.80;99.90;;;-1.90;100.00;100524.05;1706932;74;24432;-77
2021/01/31 07:50:40;;;;;;;39.33;21.22;;;-3.80;99.90;;;-1.81;100.00;100522.40;1689945;74;24444;-77
2021/01/31 07:52:59;;;;;;;40.96;20.61;;;-3.70;99.90;;;-1.77;100.00;100522.64;1712182;74;24449;-78
2021/01/31 07:55:46;;;;;;;38.70;19.42;;;-3.70;99.90;;;-1.76;100.00;100518.42;1712759;74;24416;-77
2021/01/31 07:58:36;;;;;;;36.40;19.80;;;-3.70;99.90;;;-1.76;100.00;100524.80;1703135;74;24968;-78
2021/01/31 08:00:56;;;;;;;39.24;20.03;;;-3.70;99.90;;;-1.75;100.00;100526.55;1713248;74;24393;-77
2021/01/31 08:03:27;;;;;;;43.74;21.61;;;-3.60;99.90;;;-1.65;100.00;100535.19;1705174;75;24991;-80
2021/01/31 08:06:06;;;;;;;41.79;21.24;;;-3.50;99.90;;;-1.50;100.00;100542.36;1713005;74;24804;-78
2021/01/31 08:08:56;;;;;;;43.70;21.53;;;-3.50;99.90;;;-1.40;100.00;100541.17;1707530;73;24485;-77
2021/01/31 08:11:57;;;;;;;41.43;22.28;;;-3.40;99.90;;;-1.35;100.00;100540.63;1713869;74;24440;-78
2021/01/31 08:14:15;;;;;;;39.72;20.96;;;-3.30;99.90;;;-1.30;100.00;100548.53;1713210;74;24445;-79
2021/01/31 08:16:58;;;;;;;43.63;22.93;;;-3.20;99.90;;;-1.24;100.00;100548.84;1712200;73;24459;-77
2021/01/31 08:19:30;;;;;;;41.89;21.52;;;-3.10;99.90;;;-1.19;100.00;100553.80;1711569;74;24460;-78
2021/01/31 08:21:57;;;;;;;39.32;21.79;;;-3.00;99.90;;;-1.17;100.00;100562.42;1709245;74;24459;-78
2021/01/31 08:24:14;;;;;;;44.25;23.22;;;-3.00;99.90;;;-1.13;100.00;100570.70;1709526;74;24519;-78
2021/01/31 08:26:50;;;;;;;41.47;22.21;;;-2.90;99.90;;;-1.08;100.00;100585.87;1706841;74;24428;-76
2021/01/31 08:29:18;;;;;;;39.10;21.10;;;-2.80;99.90;;;-0.96;100.00;100589.94;1708837;74;24954;-76
2021/01/31 08:31:35;;;;;;;41.82;22.56;;;-2.70;99.90;;;-0.88;100.00;100595.44;1707129;74;24576;-77
2021/01/31 08:34:05;;;;;;;37.41;19.97;;;-2.60;99.90;;;-0.96;100.00;100598.89;1715779;74;24471;-79
2021/01/31 08:36:35;;;;;;;38.37;20.89;;;-2.60;99.90;;;-0.98;100.00;100589.40;1706492;74;24468;-78
2021/01/31 08:38:52;;;;;;;39.31;20.90;;;-2.60;99.90;;;-0.94;100.00;100584.91;1710202;74;24981;-77
2021/01/31 08:41:41;;;;;;;43.61;23.20;;;-2.50;99.90;;;-0.84;100.00;100580.38;1709975;74;24543;-79
2021/01/31 08:44:01;;;;;;;43.72;22.38;;;-2.50;99.90;;;-0.76;100.00;100575.64;1706214;74;24939;-78
2021/01/31 08:46:21;;;;;;;39.18;22.49;;;-2.40;99.90;;;-0.64;100.00;100574.58;1705786;75;24568;-80
2021/01/31 08:48:56;;;;;;;39.57;22.15;;;-2.40;99.90;;;-0.57;100.00;100583.01;1705420;75;24883;-78
2021/01/31 08:51:18;;;;;;;41.58;22.38;;;-2.30;99.90;;;-0.52;100.00;100580.71;1714838;74;24463;-79
2021/01/31 08:53:36;;;;;;;40.25;21.91;;;-2.20;99.90;;;-0.45;100.00;100575.08;1706056;74;24460;-79
2021/01/31 08:55:53;;;;;;;38.50;21.52;;;-2.10;99.90;;;-0.37;100.00;100561.88;1708882;74;24879;-77
2021/01/31 08:58:14;;;;;;;40.96;22.66;;;-2.00;99.90;;;-0.37;100.00;100561.88;1707962;74;24382;-78
2021/01/31 09:00:33;;;;;;;39.62;22.81;;;-1.90;99.90;;;-0.36;100.00;100543.55;1717140;74;24446;-78
2021/01/31 09:02:50;;;;;;;36.15;20.14;;;-1.80;99.90;;;-0.41;100.00;100542.48;1708359;74;24501;-78
2021/01/31 09:05:15;;;;;;;36.21;20.80;;;-1.80;99.90;;;-0.40;100.00;100540.39;1712040;74;24501;-78
2021/01/31 09:07:36;;;;;;;35.42;20.46;;;-1.80;99.90;;;-0.32;100.00;100540.36;1709777;74;24446;-79
2021/01/31 09:10:03;;;;;;;38.50;21.83;;;-1.80;99.90;;;-0.27;100.00;100535.07;1709640;74;24456;-77
2021/01/31 09:12:23;;;;;;;36.05;19.62;;;-1.80;99.90;;;-0.25;100.00;100521.92;1678180;75;24501;-78
2021/01/31 09:14:45;;;;;;;35.29;20.29;;;-1.70;99.90;;;-0.24;100.00;100524.98;1715660;74;24909;-78
2021/01/31 09:17:22;;;;;;;36.43;21.15;;;-1.70;99.90;;;-0.21;100.00;100531.52;1710861;74;24477;-78
2021/01/31 09:19:42;;;;;;;35.84;20.50;;;-1.70;99.90;;;-0.09;100.00;100518.91;1710078;74;24505;-79
2021/01/31 09:22:04;;;;;;;35.10;19.45;;;-1.60;99.90;;;-0.04;100.00;100521.28;1710607;74;24471;-78
2021/01/31 09:24:26;;;;;;;36.61;20.45;;;-1.50;99.90;;;-0.09;100.00;100515.45;1723475;74;24499;-78
2021/01/31 09:26:50;;;;;;;34.60;19.81;;;-1.40;99.90;;;0.00;100.00;100509.52;1706320;74;24437;-78
2021/01/31 09:29:15;;;;;;;30.92;17.41;;;-1.10;99.90;;;-0.13;100.00;100511.02;1708258;74;24863;-75
2021/01/31 09:31:35;;;;;;;33.60;19.41;;;-1.30;99.90;;;-0.34;100.00;100516.38;1706978;74;24432;-76
2021/01/31 09:33:55;;;;;;;31.28;18.09;;;-1.10;99.90;;;-0.30;100.00;100511.91;1705303;74;24525;-77
2021/01/31 09:36:25;;;;;;;32.23;19.10;;;-1.20;99.90;;;-0.19;100.00;100506.90;1705860;74;24512;-77
2021/01/31 09:38:47;;;;;;;30.89;18.31;;;-1.20;99.90;;;0.23;100.00;100504.16;1707686;74;24489;-77
2021/01/31 09:41:05;;;;;;;35.09;21.45;;;-1.20;99.90;;;0.27;100.00;100509.91;1706109;74;24855;-82
2021/01/31 09:43:29;;;;;;;33.56;18.48;;;-1.00;99.90;;;0.55;100.00;100511.61;1711609;74;24436;-80
2021/01/31 09:45:50;;;;;;;32.86;19.70;;;-0.90;99.90;;;0.61;100.00;100507.64;1705972;74;24511;-80
2021/01/31 09:48:15;;;;;;;32.75;21.56;;;-0.70;99.90;;;0.79;100.00;100516.11;1706974;74;24584;-79